ESCF

Malmen Air Base Airport

Linköping, Sweden
METAR ESCF 231350Z 02008KT 9999 BKN020 M02/M05 Q1028
Observed Flight Rules
Feb-23 @ 13:50 UTC (43 minutes ago) Marginal Visual Flight Rules
Wind Visibility Clouds
20° at 8 knots 10,000+ meters
  • Broken at 2,000' AGL
Temperatures Readings
Current -2°C / 28°F
Dewpoint -5°C / 23°F
Humidity 80%
Altimeter 30.35" Hg
Pressure 1028 hPa
Elevation 117
METAR ESCF 231350Z 02008KT 9999 BKN020 M02/M05 Q1028
Observed Flight Rules
Feb-23 @ 13:50 UTC
(43 minutes ago)
MVFR
Wind Visibility
20° at 8 knots 10,000+ meters
Clouds
  • Broken at 2,000' AGL
Temperature Dewpoint
-2°C / 28°F -5°C / 23°F
Humidity Altimeter Pressure
80% 30.35" Hg 1028 hPa